< Typhoon 197419 1974 Season Typhoon 197421 >
Typhoon 197420 (VIRGINIA)
General InformationTrack Information on Google Maps || Disaster Info.ResourceGoogle EarthGE AnimationAtom FeedGeoJSON
Detalied Best Track (Time Zone = UTC)
Year Month Day Hour Lat. Long. Pressure (hPa) Wind (kt) Class Image Chart
1974 9 10 12 22.5 152.9 1008 0 2 -- Chart
1974 9 10 18 23.5 151.6 1008 0 2 -- Chart
1974 9 11 00 25.0 150.7 1006 0 2 -- Chart
1974 9 11 06 27.0 150.1 1004 0 2 -- Chart
1974 9 11 12 28.0 150.0 1000 0 2 -- Chart
1974 9 11 18 29.0 150.0 1000 0 2 -- Chart
1974 9 12 00 30.0 150.0 1000 0 2 -- Chart
1974 9 12 06 30.6 150.2 1000 0 2 -- Chart
1974 9 12 12 31.1 150.6 1000 0 2 -- Chart
1974 9 12 18 31.6 151.3 990 0 2 -- Chart
1974 9 13 00 32.3 152.5 980 0 9 -- Chart
1974 9 13 06 33.1 153.3 980 0 9 -- Chart
1974 9 13 12 34.0 154.0 980 0 9 -- Chart
1974 9 13 18 34.8 154.8 975 0 9 -- Chart
1974 9 14 00 35.6 155.5 970 0 9 -- Chart
1974 9 14 06 36.4 156.3 970 0 9 -- Chart
1974 9 14 12 37.4 156.0 970 0 9 -- Chart
1974 9 14 18 38.2 155.5 970 0 9 -- Chart
1974 9 15 00 38.7 155.0 975 0 9 -- Chart
1974 9 15 06 39.3 154.3 980 0 9 -- Chart
1974 9 15 12 39.7 153.7 985 0 9 -- Chart
1974 9 15 18 40.4 153.5 990 0 9 -- Chart
1974 9 16 00 41.5 153.5 996 0 9 -- Chart
1974 9 16 06 42.2 154.3 1002 0 2 -- Chart
1974 9 16 12 42.5 155.0 1006 0 2 -- Chart
1974 9 16 18 43.0 157.0 1008 0 6 -- Chart
1974 9 17 00 43.7 159.0 1010 0 6 -- Chart
1974 9 17 06 45.0 162.0 1010 0 6 -- Chart
1974 9 17 12 48.0 166.9 1010 0 6 -- Chart
1974 9 17 18 51.6 173.0 1008 0 6 -- Chart
1974 9 18 00 54.0 178.0 1000 0 6 -- Chart
Japan Meteorological Agency Best Track Data | Correction Date : 1989-06-01
< Typhoon 197419 1974 Season Typhoon 197421 >

Help